Hovedside
METAR-TAF:

METAR-TAF

Lufthavner :

Rabat, Marokko

breddegrad: 34-03N, lengdegrad: 006-46W, høyde over havet: 84 m

Gjeldene værobservasjon

Denne rapporten ble laget for 28 minutter siden, klokken 11:30 UTC
Vind 11 kt fra Nord-nordøst, skiftende mellom Nord og Øst-nordøst
Temperatur 24°C
Luftfuktighet 65%
Trykk 1019 hPa
Sikt: 6000 m

METAR: GMME 201130Z 02011KT 350V060 6000 NSC 24/17 Q1019 NOSIG

Tid: 12:58 (11:58 UTC)

Varsel

Denne rapporten ble laget for 58 minutter siden, klokken 11:00 UTC
Varsel gyldig fra 20. klokken 12 UTC til 21. klokken 18 UTC
Vind 6 kt fra Nordøst
Sikt: 6000 m
Blir
fra 20. klokken 16 UTC til 20. klokken 20 UTC
Spredte skyer i en høyde av 1600 ft
Sannsynlighet 40% :
Midlertidig
fra 21. klokken 00 UTC til 21. klokken 06 UTC
Vind 2 kt fra skiftende retning
Sikt: 4000 m
Brutte skyer i en høyde av 1000 ft
dis

TAF: GMME 201100Z 2012/2118 05006KT 6000 NSC BECMG 2016/2020 SCT016 PROB40 TEMPO 2100/2106 VRB02KT 4000 BR BKN010

Værobservasjoner og værvarsel for over 4000 flyplasser (METAR- og TAF-rapporter).

Tilgjengelige stasjoner er representert av de røde og gule prikkene på kartet.

Hold musepekeren over prikken for å se navnet på stasjonen.

Klikk så for å se værobservasjoner og -varsler.

For å forandre kartet kan du klikke på den grønne knappen med svart kryss for å zoome inn, på den grønne knappen med strek for å zoome ut, eller på de grønne pilene for å se tilstøtende kart.


METAR-TAF: